sensor_id;sensor_type;location;lat;lon;timestamp;P1;durP1;ratioP1;P2;durP2;ratioP2
12177;SDS011;6152;48.728;9.256;2023-07-20T00:01:47;3.75;;;1.35;;
12177;SDS011;6152;48.728;9.256;2023-07-20T00:04:14;1.95;;;1.00;;
12177;SDS011;6152;48.728;9.256;2023-07-20T00:06:40;1.33;;;1.20;;
12177;SDS011;6152;48.728;9.256;2023-07-20T00:09:06;1.40;;;1.30;;
12177;SDS011;6152;48.728;9.256;2023-07-20T00:11:35;3.97;;;1.20;;
12177;SDS011;6152;48.728;9.256;2023-07-20T00:14:05;2.67;;;1.40;;
12177;SDS011;6152;48.728;9.256;2023-07-20T00:16:31;1.65;;;1.00;;
12177;SDS011;6152;48.728;9.256;2023-07-20T00:18:58;1.88;;;1.30;;
12177;SDS011;6152;48.728;9.256;2023-07-20T00:21:25;1.10;;;1.10;;
12177;SDS011;6152;48.728;9.256;2023-07-20T00:23:51;2.60;;;1.23;;
12177;SDS011;6152;48.728;9.256;2023-07-20T00:26:17;1.88;;;1.10;;
12177;SDS011;6152;48.728;9.256;2023-07-20T00:28:43;1.67;;;1.20;;
12177;SDS011;6152;48.728;9.256;2023-07-20T00:31:10;1.90;;;1.40;;
12177;SDS011;6152;48.728;9.256;2023-07-20T00:33:36;2.47;;;1.45;;
12177;SDS011;6152;48.728;9.256;2023-07-20T00:36:02;2.30;;;1.30;;
12177;SDS011;6152;48.728;9.256;2023-07-20T00:38:28;1.58;;;1.27;;
12177;SDS011;6152;48.728;9.256;2023-07-20T00:40:54;3.25;;;1.23;;
12177;SDS011;6152;48.728;9.256;2023-07-20T00:43:20;4.50;;;1.10;;
12177;SDS011;6152;48.728;9.256;2023-07-20T00:45:46;2.03;;;1.20;;
12177;SDS011;6152;48.728;9.256;2023-07-20T00:48:12;1.73;;;0.80;;
12177;SDS011;6152;48.728;9.256;2023-07-20T00:50:39;3.00;;;1.27;;
12177;SDS011;6152;48.728;9.256;2023-07-20T00:53:06;1.73;;;1.33;;
12177;SDS011;6152;48.728;9.256;2023-07-20T00:55:33;1.17;;;1.08;;
12177;SDS011;6152;48.728;9.256;2023-07-20T00:57:59;3.85;;;1.40;;
12177;SDS011;6152;48.728;9.256;2023-07-20T01:00:26;1.75;;;1.42;;
12177;SDS011;6152;48.728;9.256;2023-07-20T01:02:52;2.35;;;1.48;;
12177;SDS011;6152;48.728;9.256;2023-07-20T01:05:19;1.58;;;1.20;;
12177;SDS011;6152;48.728;9.256;2023-07-20T01:13:01;2.22;;;1.25;;
12177;SDS011;6152;48.728;9.256;2023-07-20T01:15:28;2.35;;;1.35;;
12177;SDS011;6152;48.728;9.256;2023-07-20T01:17:54;1.52;;;1.38;;
12177;SDS011;6152;48.728;9.256;2023-07-20T01:20:21;2.03;;;1.30;;
12177;SDS011;6152;48.728;9.256;2023-07-20T01:25:51;2.28;;;1.10;;
12177;SDS011;6152;48.728;9.256;2023-07-20T01:31:41;3.33;;;1.23;;
12177;SDS011;6152;48.728;9.256;2023-07-20T01:34:09;1.75;;;1.10;;
12177;SDS011;6152;48.728;9.256;2023-07-20T01:36:42;1.85;;;1.30;;
12177;SDS011;6152;48.728;9.256;2023-07-20T01:39:11;2.83;;;1.30;;
12177;SDS011;6152;48.728;9.256;2023-07-20T01:41:37;1.98;;;1.10;;
12177;SDS011;6152;48.728;9.256;2023-07-20T01:44:04;1.33;;;1.23;;
12177;SDS011;6152;48.728;9.256;2023-07-20T01:46:30;3.45;;;1.38;;
12177;SDS011;6152;48.728;9.256;2023-07-20T01:48:57;1.20;;;1.10;;
12177;SDS011;6152;48.728;9.256;2023-07-20T01:51:23;1.63;;;1.40;;
12177;SDS011;6152;48.728;9.256;2023-07-20T01:53:49;3.42;;;1.23;;
12177;SDS011;6152;48.728;9.256;2023-07-20T01:56:15;4.15;;;1.52;;
12177;SDS011;6152;48.728;9.256;2023-07-20T01:58:41;2.35;;;1.52;;
12177;SDS011;6152;48.728;9.256;2023-07-20T02:01:07;2.80;;;1.30;;
12177;SDS011;6152;48.728;9.256;2023-07-20T02:03:33;2.50;;;1.30;;
12177;SDS011;6152;48.728;9.256;2023-07-20T02:06:00;2.80;;;1.52;;
12177;SDS011;6152;48.728;9.256;2023-07-20T02:08:26;1.80;;;1.45;;
12177;SDS011;6152;48.728;9.256;2023-07-20T02:10:52;1.63;;;1.50;;
12177;SDS011;6152;48.728;9.256;2023-07-20T02:13:18;1.63;;;1.50;;
12177;SDS011;6152;48.728;9.256;2023-07-20T02:15:45;2.13;;;1.38;;
12177;SDS011;6152;48.728;9.256;2023-07-20T02:18:12;2.88;;;1.58;;
12177;SDS011;6152;48.728;9.256;2023-07-20T02:20:38;4.80;;;1.30;;
12177;SDS011;6152;48.728;9.256;2023-07-20T02:23:07;1.77;;;1.65;;
12177;SDS011;6152;48.728;9.256;2023-07-20T02:25:33;3.05;;;1.52;;
12177;SDS011;6152;48.728;9.256;2023-07-20T02:27:59;1.40;;;1.30;;
12177;SDS011;6152;48.728;9.256;2023-07-20T02:30:25;1.67;;;1.58;;
12177;SDS011;6152;48.728;9.256;2023-07-20T02:32:52;2.78;;;1.60;;
12177;SDS011;6152;48.728;9.256;2023-07-20T02:35:18;1.50;;;1.40;;
12177;SDS011;6152;48.728;9.256;2023-07-20T02:37:44;5.03;;;1.40;;
12177;SDS011;6152;48.728;9.256;2023-07-20T02:40:10;2.05;;;1.42;;
12177;SDS011;6152;48.728;9.256;2023-07-20T02:42:36;2.25;;;1.30;;
12177;SDS011;6152;48.728;9.256;2023-07-20T02:45:03;1.85;;;1.30;;
12177;SDS011;6152;48.728;9.256;2023-07-20T02:47:30;2.53;;;1.42;;
12177;SDS011;6152;48.728;9.256;2023-07-20T02:49:56;2.20;;;1.60;;
12177;SDS011;6152;48.728;9.256;2023-07-20T02:52:22;0.95;;;0.90;;
12177;SDS011;6152;48.728;9.256;2023-07-20T02:54:49;1.30;;;1.20;;
12177;SDS011;6152;48.728;9.256;2023-07-20T02:57:15;1.60;;;1.30;;
12177;SDS011;6152;48.728;9.256;2023-07-20T02:59:41;1.98;;;1.25;;
12177;SDS011;6152;48.728;9.256;2023-07-20T03:02:07;1.73;;;1.20;;
12177;SDS011;6152;48.728;9.256;2023-07-20T03:04:37;2.97;;;1.50;;
12177;SDS011;6152;48.728;9.256;2023-07-20T03:07:06;2.75;;;1.52;;
12177;SDS011;6152;48.728;9.256;2023-07-20T03:09:32;2.05;;;1.20;;
12177;SDS011;6152;48.728;9.256;2023-07-20T03:11:59;4.25;;;2.05;;
12177;SDS011;6152;48.728;9.256;2023-07-20T03:14:26;3.00;;;1.50;;
12177;SDS011;6152;48.728;9.256;2023-07-20T03:16:52;2.45;;;1.30;;
12177;SDS011;6152;48.728;9.256;2023-07-20T03:19:19;2.78;;;1.35;;
12177;SDS011;6152;48.728;9.256;2023-07-20T03:21:45;3.97;;;1.30;;
12177;SDS011;6152;48.728;9.256;2023-07-20T03:24:11;1.67;;;1.55;;
12177;SDS011;6152;48.728;9.256;2023-07-20T03:26:37;1.75;;;1.63;;
12177;SDS011;6152;48.728;9.256;2023-07-20T03:29:03;4.00;;;1.33;;
12177;SDS011;6152;48.728;9.256;2023-07-20T03:31:30;2.25;;;1.50;;
12177;SDS011;6152;48.728;9.256;2023-07-20T03:33:56;2.10;;;1.50;;
12177;SDS011;6152;48.728;9.256;2023-07-20T03:36:22;2.30;;;1.33;;
12177;SDS011;6152;48.728;9.256;2023-07-20T03:38:48;3.10;;;1.42;;
12177;SDS011;6152;48.728;9.256;2023-07-20T03:41:15;3.30;;;1.45;;
12177;SDS011;6152;48.728;9.256;2023-07-20T03:43:41;3.83;;;1.58;;
12177;SDS011;6152;48.728;9.256;2023-07-20T03:46:07;3.22;;;1.40;;
12177;SDS011;6152;48.728;9.256;2023-07-20T03:48:33;1.35;;;1.25;;
12177;SDS011;6152;48.728;9.256;2023-07-20T03:50:59;1.67;;;1.15;;
12177;SDS011;6152;48.728;9.256;2023-07-20T03:53:26;2.50;;;1.23;;
12177;SDS011;6152;48.728;9.256;2023-07-20T03:55:52;2.38;;;1.30;;
12177;SDS011;6152;48.728;9.256;2023-07-20T03:58:19;2.67;;;1.40;;
12177;SDS011;6152;48.728;9.256;2023-07-20T04:00:46;3.75;;;1.35;;
12177;SDS011;6152;48.728;9.256;2023-07-20T04:03:13;3.35;;;1.30;;
12177;SDS011;6152;48.728;9.256;2023-07-20T04:05:40;2.35;;;1.40;;
12177;SDS011;6152;48.728;9.256;2023-07-20T04:08:06;2.88;;;1.30;;
12177;SDS011;6152;48.728;9.256;2023-07-20T04:10:32;2.28;;;1.10;;
12177;SDS011;6152;48.728;9.256;2023-07-20T04:12:59;1.33;;;1.23;;
12177;SDS011;6152;48.728;9.256;2023-07-20T04:15:26;2.53;;;1.60;;
12177;SDS011;6152;48.728;9.256;2023-07-20T04:17:52;2.42;;;1.60;;
12177;SDS011;6152;48.728;9.256;2023-07-20T04:20:18;2.00;;;1.33;;
12177;SDS011;6152;48.728;9.256;2023-07-20T04:22:44;4.20;;;1.60;;
12177;SDS011;6152;48.728;9.256;2023-07-20T04:25:10;1.25;;;1.10;;
12177;SDS011;6152;48.728;9.256;2023-07-20T04:27:36;3.92;;;1.58;;
12177;SDS011;6152;48.728;9.256;2023-07-20T04:30:03;1.92;;;1.50;;
12177;SDS011;6152;48.728;9.256;2023-07-20T04:32:31;2.83;;;1.40;;
12177;SDS011;6152;48.728;9.256;2023-07-20T04:34:58;1.48;;;1.25;;
12177;SDS011;6152;48.728;9.256;2023-07-20T04:37:25;3.65;;;1.67;;
12177;SDS011;6152;48.728;9.256;2023-07-20T04:39:51;3.22;;;1.45;;
12177;SDS011;6152;48.728;9.256;2023-07-20T04:42:17;2.45;;;1.42;;
12177;SDS011;6152;48.728;9.256;2023-07-20T04:44:43;2.03;;;1.58;;
12177;SDS011;6152;48.728;9.256;2023-07-20T04:47:09;1.85;;;1.30;;
12177;SDS011;6152;48.728;9.256;2023-07-20T04:49:42;1.13;;;1.02;;
12177;SDS011;6152;48.728;9.256;2023-07-20T04:52:14;4.70;;;1.17;;
12177;SDS011;6152;48.728;9.256;2023-07-20T04:54:40;1.95;;;1.10;;
12177;SDS011;6152;48.728;9.256;2023-07-20T04:57:11;1.70;;;1.35;;
12177;SDS011;6152;48.728;9.256;2023-07-20T04:59:38;4.80;;;1.40;;
12177;SDS011;6152;48.728;9.256;2023-07-20T05:02:04;1.75;;;1.20;;
12177;SDS011;6152;48.728;9.256;2023-07-20T05:04:30;2.25;;;1.42;;
12177;SDS011;6152;48.728;9.256;2023-07-20T05:06:56;4.07;;;1.35;;
12177;SDS011;6152;48.728;9.256;2023-07-20T05:09:22;4.18;;;1.60;;
12177;SDS011;6152;48.728;9.256;2023-07-20T05:11:48;2.05;;;1.42;;
12177;SDS011;6152;48.728;9.256;2023-07-20T05:14:14;3.25;;;1.50;;
12177;SDS011;6152;48.728;9.256;2023-07-20T05:16:41;7.88;;;1.60;;
12177;SDS011;6152;48.728;9.256;2023-07-20T05:19:07;1.73;;;1.50;;
12177;SDS011;6152;48.728;9.256;2023-07-20T05:21:33;3.13;;;1.40;;
12177;SDS011;6152;48.728;9.256;2023-07-20T05:23:59;1.42;;;1.33;;
12177;SDS011;6152;48.728;9.256;2023-07-20T05:26:25;2.45;;;1.55;;
12177;SDS011;6152;48.728;9.256;2023-07-20T05:28:51;4.15;;;1.42;;
12177;SDS011;6152;48.728;9.256;2023-07-20T05:31:17;4.57;;;1.52;;
12177;SDS011;6152;48.728;9.256;2023-07-20T05:33:43;12.30;;;1.80;;
12177;SDS011;6152;48.728;9.256;2023-07-20T05:36:09;3.20;;;1.70;;
12177;SDS011;6152;48.728;9.256;2023-07-20T05:38:35;3.42;;;1.70;;
12177;SDS011;6152;48.728;9.256;2023-07-20T05:41:02;2.53;;;1.50;;
12177;SDS011;6152;48.728;9.256;2023-07-20T05:43:28;5.53;;;1.60;;
12177;SDS011;6152;48.728;9.256;2023-07-20T05:45:55;2.92;;;1.60;;
12177;SDS011;6152;48.728;9.256;2023-07-20T05:48:21;3.03;;;1.60;;
12177;SDS011;6152;48.728;9.256;2023-07-20T05:50:48;1.98;;;1.85;;
12177;SDS011;6152;48.728;9.256;2023-07-20T05:53:15;1.17;;;1.10;;
12177;SDS011;6152;48.728;9.256;2023-07-20T05:55:41;1.75;;;1.30;;
12177;SDS011;6152;48.728;9.256;2023-07-20T05:58:07;3.47;;;1.45;;
12177;SDS011;6152;48.728;9.256;2023-07-20T06:00:33;3.08;;;1.40;;
12177;SDS011;6152;48.728;9.256;2023-07-20T06:02:59;3.53;;;1.48;;
12177;SDS011;6152;48.728;9.256;2023-07-20T06:05:25;1.95;;;1.40;;
12177;SDS011;6152;48.728;9.256;2023-07-20T06:07:51;4.07;;;1.92;;
12177;SDS011;6152;48.728;9.256;2023-07-20T06:10:19;3.03;;;1.70;;
12177;SDS011;6152;48.728;9.256;2023-07-20T06:12:45;2.78;;;1.40;;
12177;SDS011;6152;48.728;9.256;2023-07-20T06:15:28;4.38;;;1.33;;
12177;SDS011;6152;48.728;9.256;2023-07-20T06:17:56;1.33;;;1.20;;
12177;SDS011;6152;48.728;9.256;2023-07-20T06:20:23;2.08;;;1.10;;
12177;SDS011;6152;48.728;9.256;2023-07-20T06:22:50;2.72;;;1.20;;
12177;SDS011;6152;48.728;9.256;2023-07-20T06:25:16;2.53;;;1.20;;
12177;SDS011;6152;48.728;9.256;2023-07-20T06:27:42;2.78;;;1.25;;
12177;SDS011;6152;48.728;9.256;2023-07-20T06:30:09;2.78;;;1.02;;
12177;SDS011;6152;48.728;9.256;2023-07-20T06:32:37;5.03;;;1.30;;
12177;SDS011;6152;48.728;9.256;2023-07-20T06:35:03;2.58;;;1.45;;
12177;SDS011;6152;48.728;9.256;2023-07-20T06:37:30;1.65;;;1.10;;
12177;SDS011;6152;48.728;9.256;2023-07-20T06:39:56;3.22;;;1.33;;
12177;SDS011;6152;48.728;9.256;2023-07-20T06:42:22;3.78;;;0.95;;
12177;SDS011;6152;48.728;9.256;2023-07-20T06:44:48;2.92;;;1.58;;
12177;SDS011;6152;48.728;9.256;2023-07-20T06:47:14;3.25;;;1.30;;
12177;SDS011;6152;48.728;9.256;2023-07-20T06:49:40;2.58;;;1.50;;
12177;SDS011;6152;48.728;9.256;2023-07-20T06:52:06;3.60;;;1.55;;
12177;SDS011;6152;48.728;9.256;2023-07-20T06:54:33;5.10;;;1.38;;
12177;SDS011;6152;48.728;9.256;2023-07-20T06:56:59;3.80;;;1.52;;
12177;SDS011;6152;48.728;9.256;2023-07-20T06:59:25;2.45;;;1.10;;
12177;SDS011;6152;48.728;9.256;2023-07-20T07:01:51;1.83;;;1.30;;
12177;SDS011;6152;48.728;9.256;2023-07-20T07:04:17;2.30;;;1.30;;
12177;SDS011;6152;48.728;9.256;2023-07-20T07:06:43;2.65;;;1.20;;
12177;SDS011;6152;48.728;9.256;2023-07-20T07:09:09;2.50;;;1.05;;
12177;SDS011;6152;48.728;9.256;2023-07-20T07:11:35;1.70;;;1.00;;
12177;SDS011;6152;48.728;9.256;2023-07-20T07:14:01;6.68;;;1.27;;
12177;SDS011;6152;48.728;9.256;2023-07-20T07:16:28;2.15;;;1.20;;
12177;SDS011;6152;48.728;9.256;2023-07-20T07:18:54;1.80;;;1.45;;
12177;SDS011;6152;48.728;9.256;2023-07-20T07:21:20;1.30;;;1.20;;
12177;SDS011;6152;48.728;9.256;2023-07-20T07:23:46;3.42;;;1.23;;
12177;SDS011;6152;48.728;9.256;2023-07-20T07:26:12;1.90;;;1.13;;
12177;SDS011;6152;48.728;9.256;2023-07-20T07:28:39;2.15;;;1.52;;
12177;SDS011;6152;48.728;9.256;2023-07-20T07:31:05;2.35;;;1.20;;
12177;SDS011;6152;48.728;9.256;2023-07-20T07:33:31;7.10;;;1.60;;
12177;SDS011;6152;48.728;9.256;2023-07-20T07:35:58;2.70;;;1.40;;
12177;SDS011;6152;48.728;9.256;2023-07-20T07:38:24;4.80;;;1.35;;
12177;SDS011;6152;48.728;9.256;2023-07-20T07:40:50;1.50;;;1.25;;
12177;SDS011;6152;48.728;9.256;2023-07-20T07:43:16;1.45;;;1.30;;
12177;SDS011;6152;48.728;9.256;2023-07-20T07:45:42;3.85;;;1.20;;
12177;SDS011;6152;48.728;9.256;2023-07-20T07:48:08;2.75;;;1.38;;
12177;SDS011;6152;48.728;9.256;2023-07-20T07:50:37;2.35;;;1.38;;
12177;SDS011;6152;48.728;9.256;2023-07-20T07:53:05;3.63;;;1.27;;
12177;SDS011;6152;48.728;9.256;2023-07-20T07:55:32;3.38;;;1.30;;
12177;SDS011;6152;48.728;9.256;2023-07-20T07:57:58;3.25;;;1.42;;
12177;SDS011;6152;48.728;9.256;2023-07-20T08:00:25;2.00;;;1.30;;
12177;SDS011;6152;48.728;9.256;2023-07-20T08:02:51;1.73;;;1.48;;
12177;SDS011;6152;48.728;9.256;2023-07-20T08:05:18;1.63;;;1.27;;
12177;SDS011;6152;48.728;9.256;2023-07-20T08:07:44;3.53;;;1.20;;
12177;SDS011;6152;48.728;9.256;2023-07-20T08:10:10;3.75;;;1.30;;
12177;SDS011;6152;48.728;9.256;2023-07-20T08:12:37;2.00;;;1.27;;
12177;SDS011;6152;48.728;9.256;2023-07-20T08:15:03;5.78;;;1.42;;
12177;SDS011;6152;48.728;9.256;2023-07-20T08:17:29;4.40;;;1.33;;
12177;SDS011;6152;48.728;9.256;2023-07-20T08:19:55;1.63;;;1.50;;
12177;SDS011;6152;48.728;9.256;2023-07-20T08:22:22;3.30;;;1.33;;
12177;SDS011;6152;48.728;9.256;2023-07-20T08:24:48;4.30;;;1.50;;
12177;SDS011;6152;48.728;9.256;2023-07-20T08:27:14;4.00;;;1.35;;
12177;SDS011;6152;48.728;9.256;2023-07-20T08:29:40;2.55;;;1.38;;
12177;SDS011;6152;48.728;9.256;2023-07-20T08:32:06;3.60;;;1.40;;
12177;SDS011;6152;48.728;9.256;2023-07-20T08:34:33;2.50;;;1.20;;
12177;SDS011;6152;48.728;9.256;2023-07-20T08:36:59;2.20;;;1.20;;
12177;SDS011;6152;48.728;9.256;2023-07-20T08:39:25;2.03;;;1.15;;
12177;SDS011;6152;48.728;9.256;2023-07-20T08:41:51;3.60;;;1.45;;
12177;SDS011;6152;48.728;9.256;2023-07-20T08:44:19;4.72;;;1.70;;
12177;SDS011;6152;48.728;9.256;2023-07-20T08:46:45;1.30;;;1.05;;
12177;SDS011;6152;48.728;9.256;2023-07-20T08:49:12;2.67;;;1.30;;
12177;SDS011;6152;48.728;9.256;2023-07-20T08:51:40;1.80;;;1.30;;
12177;SDS011;6152;48.728;9.256;2023-07-20T08:54:07;6.28;;;1.27;;
12177;SDS011;6152;48.728;9.256;2023-07-20T08:56:35;7.15;;;1.35;;
12177;SDS011;6152;48.728;9.256;2023-07-20T08:59:03;4.70;;;1.40;;
12177;SDS011;6152;48.728;9.256;2023-07-20T09:01:31;1.58;;;1.40;;
12177;SDS011;6152;48.728;9.256;2023-07-20T09:03:57;2.08;;;1.27;;
12177;SDS011;6152;48.728;9.256;2023-07-20T09:06:24;3.20;;;1.45;;
12177;SDS011;6152;48.728;9.256;2023-07-20T09:08:50;4.60;;;1.17;;
12177;SDS011;6152;48.728;9.256;2023-07-20T09:11:16;2.38;;;1.20;;
12177;SDS011;6152;48.728;9.256;2023-07-20T09:13:43;3.83;;;1.23;;
12177;SDS011;6152;48.728;9.256;2023-07-20T09:16:10;2.95;;;1.20;;
12177;SDS011;6152;48.728;9.256;2023-07-20T09:18:39;4.38;;;1.05;;
12177;SDS011;6152;48.728;9.256;2023-07-20T09:21:06;1.60;;;1.02;;
12177;SDS011;6152;48.728;9.256;2023-07-20T09:23:36;1.58;;;1.42;;
12177;SDS011;6152;48.728;9.256;2023-07-20T09:26:12;3.67;;;1.60;;
12177;SDS011;6152;48.728;9.256;2023-07-20T09:28:52;3.85;;;1.20;;
12177;SDS011;6152;48.728;9.256;2023-07-20T09:31:19;0.80;;;0.80;;
12177;SDS011;6152;48.728;9.256;2023-07-20T09:33:46;2.03;;;1.08;;
12177;SDS011;6152;48.728;9.256;2023-07-20T09:36:14;3.67;;;1.25;;
12177;SDS011;6152;48.728;9.256;2023-07-20T09:38:41;4.05;;;1.23;;
12177;SDS011;6152;48.728;9.256;2023-07-20T09:41:08;2.60;;;1.23;;
12177;SDS011;6152;48.728;9.256;2023-07-20T09:43:43;2.72;;;1.00;;
12177;SDS011;6152;48.728;9.256;2023-07-20T09:46:10;1.02;;;1.02;;
12177;SDS011;6152;48.728;9.256;2023-07-20T09:48:36;1.83;;;1.00;;
12177;SDS011;6152;48.728;9.256;2023-07-20T09:51:03;3.85;;;1.50;;
12177;SDS011;6152;48.728;9.256;2023-07-20T09:53:31;1.20;;;1.10;;
12177;SDS011;6152;48.728;9.256;2023-07-20T09:55:58;1.30;;;1.00;;
12177;SDS011;6152;48.728;9.256;2023-07-20T09:58:28;1.95;;;1.10;;
12177;SDS011;6152;48.728;9.256;2023-07-20T10:00:56;1.20;;;1.15;;
12177;SDS011;6152;48.728;9.256;2023-07-20T10:03:28;5.53;;;1.60;;
12177;SDS011;6152;48.728;9.256;2023-07-20T10:06:00;1.48;;;1.00;;
12177;SDS011;6152;48.728;9.256;2023-07-20T10:08:31;1.40;;;1.30;;
12177;SDS011;6152;48.728;9.256;2023-07-20T10:11:00;1.08;;;0.90;;
12177;SDS011;6152;48.728;9.256;2023-07-20T10:13:29;2.15;;;1.00;;
12177;SDS011;6152;48.728;9.256;2023-07-20T10:16:03;3.58;;;0.90;;
12177;SDS011;6152;48.728;9.256;2023-07-20T10:18:47;2.17;;;0.63;;
12177;SDS011;6152;48.728;9.256;2023-07-20T10:21:20;0.70;;;0.70;;
12177;SDS011;6152;48.728;9.256;2023-07-20T10:23:49;1.85;;;0.82;;
12177;SDS011;6152;48.728;9.256;2023-07-20T10:26:16;0.85;;;0.85;;
12177;SDS011;6152;48.728;9.256;2023-07-20T10:28:42;1.13;;;0.80;;
12177;SDS011;6152;48.728;9.256;2023-07-20T10:31:08;2.22;;;1.02;;
12177;SDS011;6152;48.728;9.256;2023-07-20T10:33:37;1.85;;;0.90;;
12177;SDS011;6152;48.728;9.256;2023-07-20T10:36:04;2.95;;;1.00;;
12177;SDS011;6152;48.728;9.256;2023-07-20T10:38:40;1.67;;;1.08;;
12177;SDS011;6152;48.728;9.256;2023-07-20T10:44:07;1.40;;;1.10;;
12177;SDS011;6152;48.728;9.256;2023-07-20T10:46:34;2.17;;;1.10;;
12177;SDS011;6152;48.728;9.256;2023-07-20T10:49:04;2.47;;;1.00;;
12177;SDS011;6152;48.728;9.256;2023-07-20T10:51:41;0.95;;;0.70;;
12177;SDS011;6152;48.728;9.256;2023-07-20T10:59:50;1.20;;;0.90;;
12177;SDS011;6152;48.728;9.256;2023-07-20T11:02:17;1.10;;;1.00;;
12177;SDS011;6152;48.728;9.256;2023-07-20T11:04:46;1.60;;;0.60;;
12177;SDS011;6152;48.728;9.256;2023-07-20T11:07:16;2.58;;;0.82;;
12177;SDS011;6152;48.728;9.256;2023-07-20T11:10:12;0.98;;;0.70;;
12177;SDS011;6152;48.728;9.256;2023-07-20T11:12:40;0.63;;;0.63;;
12177;SDS011;6152;48.728;9.256;2023-07-20T11:15:06;2.15;;;0.95;;
12177;SDS011;6152;48.728;9.256;2023-07-20T11:17:32;0.65;;;0.65;;
12177;SDS011;6152;48.728;9.256;2023-07-20T11:20:01;1.25;;;1.25;;
12177;SDS011;6152;48.728;9.256;2023-07-20T11:22:28;0.73;;;0.73;;
12177;SDS011;6152;48.728;9.256;2023-07-20T11:24:56;1.00;;;0.80;;
12177;SDS011;6152;48.728;9.256;2023-07-20T11:27:23;0.60;;;0.55;;
12177;SDS011;6152;48.728;9.256;2023-07-20T11:29:49;0.75;;;0.75;;
12177;SDS011;6152;48.728;9.256;2023-07-20T11:32:22;1.30;;;0.52;;
12177;SDS011;6152;48.728;9.256;2023-07-20T11:34:48;1.00;;;0.95;;
12177;SDS011;6152;48.728;9.256;2023-07-20T11:37:16;0.90;;;0.73;;
12177;SDS011;6152;48.728;9.256;2023-07-20T11:39:43;0.95;;;0.93;;
12177;SDS011;6152;48.728;9.256;2023-07-20T11:42:09;1.05;;;0.70;;
12177;SDS011;6152;48.728;9.256;2023-07-20T11:44:36;0.70;;;0.70;;
12177;SDS011;6152;48.728;9.256;2023-07-20T11:47:03;1.95;;;0.68;;
12177;SDS011;6152;48.728;9.256;2023-07-20T11:49:50;1.00;;;0.77;;
12177;SDS011;6152;48.728;9.256;2023-07-20T11:52:19;1.10;;;0.93;;
12177;SDS011;6152;48.728;9.256;2023-07-20T11:54:48;1.48;;;0.73;;
12177;SDS011;6152;48.728;9.256;2023-07-20T11:57:20;1.45;;;0.70;;
12177;SDS011;6152;48.728;9.256;2023-07-20T11:59:55;1.50;;;0.80;;
12177;SDS011;6152;48.728;9.256;2023-07-20T12:02:23;1.77;;;0.60;;
12177;SDS011;6152;48.728;9.256;2023-07-20T12:04:51;2.05;;;0.80;;
12177;SDS011;6152;48.728;9.256;2023-07-20T12:07:19;0.50;;;0.50;;
12177;SDS011;6152;48.728;9.256;2023-07-20T12:10:02;0.85;;;0.82;;
12177;SDS011;6152;48.728;9.256;2023-07-20T12:12:39;0.60;;;0.60;;
12177;SDS011;6152;48.728;9.256;2023-07-20T12:15:16;0.80;;;0.80;;
12177;SDS011;6152;48.728;9.256;2023-07-20T12:17:55;0.60;;;0.60;;
12177;SDS011;6152;48.728;9.256;2023-07-20T12:20:29;0.50;;;0.47;;
12177;SDS011;6152;48.728;9.256;2023-07-20T12:23:12;1.27;;;0.70;;
12177;SDS011;6152;48.728;9.256;2023-07-20T12:25:42;1.90;;;0.85;;
12177;SDS011;6152;48.728;9.256;2023-07-20T12:28:10;1.27;;;0.70;;
12177;SDS011;6152;48.728;9.256;2023-07-20T12:30:38;1.75;;;1.45;;
12177;SDS011;6152;48.728;9.256;2023-07-20T12:33:06;0.60;;;0.60;;
12177;SDS011;6152;48.728;9.256;2023-07-20T12:35:32;1.80;;;0.77;;
12177;SDS011;6152;48.728;9.256;2023-07-20T12:37:59;1.42;;;0.77;;
12177;SDS011;6152;48.728;9.256;2023-07-20T12:40:25;1.75;;;1.10;;
12177;SDS011;6152;48.728;9.256;2023-07-20T12:42:52;1.50;;;0.73;;
12177;SDS011;6152;48.728;9.256;2023-07-20T12:45:18;0.77;;;0.75;;
12177;SDS011;6152;48.728;9.256;2023-07-20T12:47:44;1.58;;;0.77;;
12177;SDS011;6152;48.728;9.256;2023-07-20T12:50:11;1.73;;;0.70;;
12177;SDS011;6152;48.728;9.256;2023-07-20T12:52:37;0.80;;;0.80;;
12177;SDS011;6152;48.728;9.256;2023-07-20T12:55:05;1.83;;;0.65;;
12177;SDS011;6152;48.728;9.256;2023-07-20T12:57:33;0.70;;;0.70;;
12177;SDS011;6152;48.728;9.256;2023-07-20T13:00:00;0.60;;;0.47;;
12177;SDS011;6152;48.728;9.256;2023-07-20T13:02:29;1.50;;;0.60;;
12177;SDS011;6152;48.728;9.256;2023-07-20T13:04:56;1.40;;;0.70;;
12177;SDS011;6152;48.728;9.256;2023-07-20T13:07:29;1.85;;;0.70;;
12177;SDS011;6152;48.728;9.256;2023-07-20T13:10:00;0.70;;;0.60;;
12177;SDS011;6152;48.728;9.256;2023-07-20T13:12:28;1.45;;;0.60;;
12177;SDS011;6152;48.728;9.256;2023-07-20T13:14:56;0.80;;;0.55;;
12177;SDS011;6152;48.728;9.256;2023-07-20T13:17:25;1.70;;;0.88;;
12177;SDS011;6152;48.728;9.256;2023-07-20T13:19:52;2.00;;;0.98;;
12177;SDS011;6152;48.728;9.256;2023-07-20T13:22:19;0.60;;;0.60;;
12177;SDS011;6152;48.728;9.256;2023-07-20T13:24:46;2.38;;;0.82;;
12177;SDS011;6152;48.728;9.256;2023-07-20T13:27:15;0.60;;;0.60;;
12177;SDS011;6152;48.728;9.256;2023-07-20T13:29:42;0.85;;;0.60;;
12177;SDS011;6152;48.728;9.256;2023-07-20T13:32:08;0.88;;;0.60;;
12177;SDS011;6152;48.728;9.256;2023-07-20T13:34:34;0.60;;;0.60;;
12177;SDS011;6152;48.728;9.256;2023-07-20T13:37:01;1.40;;;0.60;;
12177;SDS011;6152;48.728;9.256;2023-07-20T13:39:28;1.35;;;0.52;;
12177;SDS011;6152;48.728;9.256;2023-07-20T13:41:54;0.77;;;0.50;;
12177;SDS011;6152;48.728;9.256;2023-07-20T13:44:20;0.60;;;0.60;;
12177;SDS011;6152;48.728;9.256;2023-07-20T13:46:47;1.13;;;0.80;;
12177;SDS011;6152;48.728;9.256;2023-07-20T13:49:14;0.80;;;0.60;;
12177;SDS011;6152;48.728;9.256;2023-07-20T13:51:43;0.85;;;0.70;;
12177;SDS011;6152;48.728;9.256;2023-07-20T13:54:09;0.73;;;0.73;;
12177;SDS011;6152;48.728;9.256;2023-07-20T13:56:36;0.93;;;0.80;;
12177;SDS011;6152;48.728;9.256;2023-07-20T13:59:03;1.20;;;0.80;;
12177;SDS011;6152;48.728;9.256;2023-07-20T14:01:29;0.80;;;0.80;;
12177;SDS011;6152;48.728;9.256;2023-07-20T14:03:57;1.33;;;0.80;;
12177;SDS011;6152;48.728;9.256;2023-07-20T14:06:24;1.90;;;0.85;;
12177;SDS011;6152;48.728;9.256;2023-07-20T14:08:50;3.33;;;0.60;;
12177;SDS011;6152;48.728;9.256;2023-07-20T14:11:18;1.63;;;0.52;;
12177;SDS011;6152;48.728;9.256;2023-07-20T14:13:44;1.08;;;0.60;;
12177;SDS011;6152;48.728;9.256;2023-07-20T14:16:10;1.30;;;0.60;;
12177;SDS011;6152;48.728;9.256;2023-07-20T14:18:36;2.22;;;0.73;;
12177;SDS011;6152;48.728;9.256;2023-07-20T14:21:02;0.85;;;0.55;;
12177;SDS011;6152;48.728;9.256;2023-07-20T14:23:30;1.55;;;0.60;;
12177;SDS011;6152;48.728;9.256;2023-07-20T14:25:56;0.60;;;0.60;;
12177;SDS011;6152;48.728;9.256;2023-07-20T14:28:22;2.88;;;0.70;;
12177;SDS011;6152;48.728;9.256;2023-07-20T14:30:49;1.65;;;0.60;;
12177;SDS011;6152;48.728;9.256;2023-07-20T14:33:15;1.05;;;0.55;;
12177;SDS011;6152;48.728;9.256;2023-07-20T14:35:41;1.35;;;0.70;;
12177;SDS011;6152;48.728;9.256;2023-07-20T14:38:07;1.00;;;0.70;;
12177;SDS011;6152;48.728;9.256;2023-07-20T14:40:33;0.82;;;0.60;;
12177;SDS011;6152;48.728;9.256;2023-07-20T14:42:59;0.52;;;0.50;;
12177;SDS011;6152;48.728;9.256;2023-07-20T14:45:26;0.60;;;0.50;;
12177;SDS011;6152;48.728;9.256;2023-07-20T14:47:53;2.45;;;1.08;;
12177;SDS011;6152;48.728;9.256;2023-07-20T14:50:22;0.50;;;0.50;;
12177;SDS011;6152;48.728;9.256;2023-07-20T14:52:48;0.60;;;0.60;;
12177;SDS011;6152;48.728;9.256;2023-07-20T14:55:15;2.55;;;0.80;;
12177;SDS011;6152;48.728;9.256;2023-07-20T14:57:42;1.95;;;0.60;;
12177;SDS011;6152;48.728;9.256;2023-07-20T15:00:08;1.73;;;0.80;;
12177;SDS011;6152;48.728;9.256;2023-07-20T15:02:38;2.42;;;0.70;;
12177;SDS011;6152;48.728;9.256;2023-07-20T15:05:08;0.75;;;0.75;;
12177;SDS011;6152;48.728;9.256;2023-07-20T15:07:35;0.93;;;0.60;;
12177;SDS011;6152;48.728;9.256;2023-07-20T15:10:02;1.48;;;0.63;;
12177;SDS011;6152;48.728;9.256;2023-07-20T15:12:29;1.83;;;0.60;;
12177;SDS011;6152;48.728;9.256;2023-07-20T15:15:03;1.10;;;0.50;;
12177;SDS011;6152;48.728;9.256;2023-07-20T15:17:34;0.70;;;0.50;;
12177;SDS011;6152;48.728;9.256;2023-07-20T15:20:02;1.17;;;0.60;;
12177;SDS011;6152;48.728;9.256;2023-07-20T15:22:29;0.95;;;0.50;;